Time;durP1;ratioP1;P1;durP2;ratioP2;P2;SDS_P1;SDS_P2;PMS_P1;PMS_P2;Temp;Humidity;BMP_temperature;BMP_pressure;BME280_temperature;BME280_humidity;BME280_pressure;Samples;Min_cycle;Max_cycle;Signal;HPM_P1;HPM_P2
2021/08/03 00:01:30;;;;;;;26.73;11.10;;;;;;;32.40;26.72;99001.81;5052345;28;20035;-74
2021/08/03 00:04:06;;;;;;;31.67;11.18;;;;;;;32.32;26.83;98998.00;5052298;28;20059;-74
2021/08/03 00:06:34;;;;;;;27.75;11.27;;;;;;;32.60;27.02;99039.22;5051241;28;20029;-74
2021/08/03 00:09:00;;;;;;;26.55;10.95;;;;;;;32.58;26.80;99038.78;5052291;28;20033;-73
2021/08/03 00:11:27;;;;;;;24.00;10.07;;;;;;;32.59;26.61;99034.91;5052079;28;20496;-73
2021/08/03 00:13:53;;;;;;;26.25;11.50;;;;;;;32.65;25.88;99036.28;5052324;28;20109;-74
2021/08/03 00:16:20;;;;;;;25.45;10.05;;;;;;;32.43;25.24;99006.59;5052020;28;20108;-73
2021/08/03 00:18:45;;;;;;;26.92;10.18;;;;;;;32.36;24.14;98992.69;5050813;28;20494;-74
2021/08/03 00:21:12;;;;;;;26.20;10.77;;;;;;;32.64;23.74;99048.34;5051916;28;20025;-74
2021/08/03 00:23:42;;;;;;;24.35;9.98;;;;;;;32.69;23.09;99050.88;5052085;28;20096;-78
2021/08/03 00:26:11;;;;;;;25.02;10.23;;;;;;;32.68;22.10;99040.28;5052036;28;20495;-79
2021/08/03 00:28:36;;;;;;;25.50;9.90;;;;;;;32.45;21.79;99012.53;5051929;28;20045;-77
2021/08/03 00:31:02;;;;;;;25.00;10.70;;;;;;;32.46;21.46;99003.19;5051899;28;20071;-79
2021/08/03 00:33:27;;;;;;;24.50;10.27;;;;;;;32.36;21.23;98977.09;5051596;28;20025;-79
2021/08/03 00:35:53;;;;;;;29.35;10.15;;;;;;;32.45;21.02;98996.13;5051706;28;20029;-79
2021/08/03 00:38:18;;;;;;;26.00;9.63;;;;;;;32.69;21.01;99042.69;5051698;28;20482;-79
2021/08/03 00:40:58;;;;;;;27.48;10.45;;;;;;;32.71;20.96;99039.63;5051875;28;20108;-78
2021/08/03 00:43:24;;;;;;;22.20;9.98;;;;;;;32.42;21.11;99005.00;5051909;28;20035;-79
2021/08/03 00:45:49;;;;;;;21.23;8.80;;;;;;;32.57;20.96;99020.78;5051731;28;20111;-78
2021/08/03 00:48:15;;;;;;;24.52;9.50;;;;;;;32.41;20.99;98997.94;5051625;28;20029;-79
2021/08/03 00:50:40;;;;;;;22.45;9.63;;;;;;;32.52;21.20;99019.03;5051950;28;20477;-78
2021/08/03 00:53:06;;;;;;;22.85;9.45;;;;;;;32.76;20.85;99042.97;5051318;28;20086;-78
2021/08/03 00:55:31;;;;;;;19.38;9.13;;;;;;;32.77;20.83;99041.84;5051317;28;20036;-78
2021/08/03 00:57:57;;;;;;;26.73;8.80;;;;;;;32.34;20.71;98962.16;5049931;28;20431;-79
2021/08/03 01:00:23;;;;;;;19.15;7.88;;;;;;;32.60;20.83;99020.09;5051566;28;20025;-77
2021/08/03 01:02:48;;;;;;;22.77;8.40;;;;;;;32.71;20.79;99042.38;5050065;28;20027;-76
2021/08/03 01:05:14;;;;;;;22.40;9.05;;;;;;;32.44;21.08;99005.47;5051329;28;20021;-78
2021/08/03 01:07:48;;;;;;;24.58;8.57;;;;;;;32.45;20.98;99010.59;5051227;28;20135;-77
2021/08/03 01:10:42;;;;;;;20.15;7.47;;;;;;;32.29;20.83;98981.50;5051125;28;20390;-77
2021/08/03 01:13:30;;;;;;;17.60;7.05;;;;;;;32.65;20.63;99047.22;5051003;28;20108;-78
2021/08/03 01:16:17;;;;;;;16.45;7.32;;;;;;;32.68;20.97;99051.22;5051361;28;20086;-79
2021/08/03 01:18:54;;;;;;;18.75;7.90;;;;;;;32.69;21.09;99050.88;5050187;28;20478;-79
2021/08/03 01:21:35;;;;;;;17.88;7.72;;;;;;;32.66;20.98;99048.81;5050973;28;20036;-79
2021/08/03 01:24:11;;;;;;;;;;;;;;;32.45;21.06;99054.31;5051528;28;20032;-76
2021/08/03 01:27:18;;;;;;;17.10;6.72;;;;;;;32.49;20.96;99057.97;5051043;28;19966;-75
2021/08/03 01:29:46;;;;;;;16.95;6.80;;;;;;;32.53;21.26;99055.38;5045656;28;20068;-76
2021/08/03 01:32:14;;;;;;;17.95;6.68;;;;;;;32.33;21.35;99032.41;5051000;28;20040;-72
2021/08/03 01:34:42;;;;;;;21.95;6.95;;;;;;;32.44;21.32;99041.78;5051088;28;20087;-75
2021/08/03 01:37:10;;;;;;;16.25;7.03;;;;;;;32.39;21.06;99052.91;5051195;28;20025;-74
2021/08/03 01:39:43;;;;;;;18.13;6.72;;;;;;;32.15;21.55;99020.00;5051120;28;20061;-76
2021/08/03 01:42:10;;;;;;;16.90;7.00;;;;;;;32.20;21.18;99047.91;5052104;28;20456;-75
2021/08/03 01:44:37;;;;;;;19.25;7.55;;;;;;;32.40;21.53;99062.72;5054960;28;20029;-76
2021/08/03 01:47:05;;;;;;;16.77;6.47;;;;;;;32.29;21.64;99047.06;5054891;28;20060;-75
2021/08/03 01:49:35;;;;;;;17.15;6.72;;;;;;;32.37;21.56;99062.59;5055015;28;20036;-76
2021/08/03 01:52:02;;;;;;;16.52;6.57;;;;;;;32.16;21.54;99040.72;5053808;28;20086;-75
2021/08/03 01:54:29;;;;;;;15.68;7.22;;;;;;;32.13;21.83;99035.91;5054945;28;20047;-75
2021/08/03 01:56:56;;;;;;;16.33;7.82;;;;;;;32.17;22.00;99051.31;5054544;28;20029;-74
2021/08/03 01:59:22;;;;;;;15.70;6.88;;;;;;;32.23;21.80;99069.09;5054738;28;20559;-74
2021/08/03 02:01:49;;;;;;;13.40;6.60;;;;;;;31.98;22.09;99022.84;5054846;28;20112;-76
2021/08/03 02:04:17;;;;;;;17.63;6.85;;;;;;;32.21;22.10;99068.63;5054716;28;20068;-74
2021/08/03 02:06:43;;;;;;;18.83;7.60;;;;;;;32.08;21.66;99066.16;5054670;28;20078;-75
2021/08/03 02:09:10;;;;;;;16.77;7.18;;;;;;;31.77;22.21;99026.31;5054588;28;20029;-75
2021/08/03 02:11:37;;;;;;;16.42;7.07;;;;;;;32.05;22.31;99075.81;5054397;28;20032;-74
2021/08/03 02:14:03;;;;;;;19.98;7.47;;;;;;;31.81;22.25;99049.09;5054195;28;20127;-74
2021/08/03 02:16:31;;;;;;;16.55;6.78;;;;;;;31.95;22.30;99081.63;5054556;28;20029;-74
2021/08/03 02:18:56;;;;;;;18.45;7.82;;;;;;;31.84;22.20;99077.69;5054440;28;20028;-74
2021/08/03 02:21:23;;;;;;;17.13;7.30;;;;;;;31.79;22.66;99081.41;5053145;28;20066;-74
2021/08/03 02:23:50;;;;;;;17.50;7.30;;;;;;;31.78;22.45;99076.25;5054523;28;20082;-77
2021/08/03 02:26:16;;;;;;;16.38;6.72;;;;;;;31.68;22.33;99065.69;5054223;28;20112;-76
2021/08/03 02:28:41;;;;;;;17.30;7.10;;;;;;;31.69;22.66;99084.47;5052874;28;20110;-79
2021/08/03 02:31:31;;;;;;;16.30;6.88;;;;;;;31.62;22.55;99084.19;5054021;28;20116;-78
2021/08/03 02:34:12;;;;;;;15.70;6.95;;;;;;;31.23;22.81;99026.09;5046694;28;20505;-78
2021/08/03 02:36:44;;;;;;;18.30;6.85;;;;;;;31.44;22.83;99060.84;5054092;28;20082;-78
2021/08/03 02:39:11;;;;;;;19.02;6.70;;;;;;;31.23;23.03;99047.91;5054053;28;20090;-78
2021/08/03 02:41:36;;;;;;;17.40;6.95;;;;;;;31.48;23.05;99083.59;5054159;28;20482;-78
2021/08/03 02:44:03;;;;;;;16.85;6.35;;;;;;;31.54;22.75;99082.28;5053874;28;20131;-78
2021/08/03 02:46:29;;;;;;;15.93;6.25;;;;;;;31.18;22.92;99039.88;5053749;28;20025;-78
2021/08/03 02:49:01;;;;;;;17.02;6.45;;;;;;;31.10;23.42;99032.50;5053705;28;20057;-77
2021/08/03 02:51:32;;;;;;;18.30;7.00;;;;;;;31.47;23.29;99095.66;5053925;28;20029;-78
2021/08/03 02:54:02;;;;;;;15.10;7.15;;;;;;;31.26;23.39;99060.09;5052607;28;20024;-78
2021/08/03 02:56:30;;;;;;;12.68;5.72;;;;;;;31.21;23.22;99058.34;5053734;28;20100;-77
2021/08/03 02:59:00;;;;;;;14.95;6.40;;;;;;;31.51;23.68;99096.59;5053710;28;20013;-79
2021/08/03 03:01:28;;;;;;;16.20;6.67;;;;;;;31.49;23.58;99113.28;5053656;28;20174;-79
2021/08/03 03:04:00;;;;;;;13.63;6.18;;;;;;;31.16;23.65;99053.03;5053690;28;20021;-78
2021/08/03 03:06:26;;;;;;;15.65;6.57;;;;;;;31.53;23.74;99108.78;5053652;28;20031;-78
2021/08/03 03:08:54;;;;;;;16.33;6.47;;;;;;;31.26;23.43;99065.56;5053212;28;20024;-79
2021/08/03 03:11:25;;;;;;;12.05;5.50;;;;;;;31.53;23.73;99107.97;5053588;28;20039;-78
2021/08/03 03:13:59;;;;;;;12.85;6.47;;;;;;;31.17;23.91;99065.56;5053409;28;20406;-79
2021/08/03 03:16:26;;;;;;;18.50;6.72;;;;;;;31.08;24.17;99066.69;5053366;28;20114;-79
2021/08/03 03:18:57;;;;;;;17.85;6.45;;;;;;;31.43;23.90;99130.97;5053764;28;20017;-79
2021/08/03 03:21:24;;;;;;;17.60;6.55;;;;;;;31.33;24.05;99127.78;5053637;28;20048;-78
2021/08/03 03:23:53;;;;;;;15.43;6.35;;;;;;;31.32;24.40;99135.19;5052073;28;20029;-78
2021/08/03 03:26:23;;;;;;;18.52;6.22;;;;;;;31.13;24.77;99119.13;5053061;28;20107;-79
2021/08/03 03:28:50;;;;;;;12.80;6.63;;;;;;;31.22;24.64;99138.25;5053129;28;20029;-79
2021/08/03 03:31:17;;;;;;;13.27;6.30;;;;;;;30.90;24.98;99104.88;5053257;28;20070;-78
2021/08/03 03:33:44;;;;;;;16.45;6.00;;;;;;;30.59;25.45;99080.53;5053161;28;20021;-78
2021/08/03 03:36:11;;;;;;;13.00;6.65;;;;;;;30.88;25.41;99131.66;5053070;28;20054;-79
2021/08/03 03:38:39;;;;;;;14.48;6.10;;;;;;;30.94;25.88;99146.75;5052850;28;20533;-79
2021/08/03 03:41:08;;;;;;;17.20;6.32;;;;;;;30.90;26.15;99158.59;5052867;28;20108;-77
2021/08/03 03:43:34;;;;;;;12.13;5.93;;;;;;;30.88;26.36;99161.66;5054078;28;20029;-79
2021/08/03 03:46:04;;;;;;;14.35;6.13;;;;;;;30.78;26.26;99148.34;5052986;28;20043;-77
2021/08/03 03:48:33;;;;;;;12.88;5.60;;;;;;;30.45;26.79;99104.38;5053214;28;20029;-78
2021/08/03 03:51:02;;;;;;;13.02;5.53;;;;;;;30.85;27.31;99164.22;5053015;28;20033;-79
2021/08/03 03:53:49;;;;;;;12.00;5.80;;;;;;;30.35;27.81;99086.41;5052640;28;20553;-76
2021/08/03 03:56:16;;;;;;;11.73;5.95;;;;;;;30.54;27.66;99118.03;5052635;28;20020;-78
2021/08/03 03:58:45;;;;;;;11.68;5.70;;;;;;;30.79;28.15;99163.59;5052660;28;20100;-78
2021/08/03 04:01:14;;;;;;;11.00;5.82;;;;;;;30.74;28.25;99155.56;5052718;28;20029;-79
2021/08/03 04:03:41;;;;;;;12.32;5.68;;;;;;;30.63;28.32;99149.63;5052567;28;20563;-79
2021/08/03 04:06:08;;;;;;;12.93;5.85;;;;;;;30.35;28.69;99121.81;5052160;28;20082;-78
2021/08/03 04:08:38;;;;;;;13.43;6.25;;;;;;;30.18;28.93;99105.47;5052517;28;20021;-78
2021/08/03 04:11:03;;;;;;;12.13;6.03;;;;;;;30.47;29.02;99140.28;5052641;28;20025;-78
2021/08/03 04:13:29;;;;;;;12.85;5.82;;;;;;;30.49;29.02;99157.13;5052646;28;20021;-78
2021/08/03 04:15:54;;;;;;;11.48;6.07;;;;;;;30.33;29.28;99158.69;5052338;28;20028;-77
2021/08/03 04:18:20;;;;;;;16.20;5.55;;;;;;;30.54;29.36;99195.13;5052476;28;20025;-79
2021/08/03 04:20:45;;;;;;;10.02;5.85;;;;;;;30.24;29.49;99142.31;5051003;28;20115;-76
2021/08/03 04:23:10;;;;;;;18.17;6.55;;;;;;;30.42;29.38;99175.84;5051567;28;20013;-79
2021/08/03 04:25:36;;;;;;;12.13;5.80;;;;;;;30.15;29.52;99122.44;5053759;28;20054;-79
2021/08/03 04:28:02;;;;;;;11.88;5.38;;;;;;;30.08;29.73;99127.53;5055102;28;20029;-79
2021/08/03 04:30:27;;;;;;;15.50;6.30;;;;;;;30.55;30.09;99215.00;5054530;28;20029;-79
2021/08/03 04:32:52;;;;;;;11.60;5.75;;;;;;;30.49;30.30;99222.50;5052898;28;20021;-79
2021/08/03 04:35:18;;;;;;;14.27;5.80;;;;;;;30.45;30.33;99204.38;5054848;28;20031;-78
2021/08/03 04:37:46;;;;;;;8.20;5.38;;;;;;;30.41;30.33;99190.56;5055417;28;20017;-79
2021/08/03 04:40:14;;;;;;;13.65;6.28;;;;;;;30.59;30.19;99199.66;5055458;28;20090;-80
2021/08/03 04:42:40;;;;;;;14.75;5.65;;;;;;;30.42;30.39;99189.47;5054732;28;20025;-77
2021/08/03 04:45:07;;;;;;;12.68;5.90;;;;;;;30.31;30.55;99167.16;5053845;28;20032;-79
2021/08/03 04:47:33;;;;;;;14.13;6.20;;;;;;;30.56;30.57;99217.41;5053083;28;20021;-78
2021/08/03 04:49:58;;;;;;;13.35;6.07;;;;;;;30.72;31.10;99246.94;5054433;28;20017;-81
2021/08/03 04:52:24;;;;;;;14.05;5.82;;;;;;;30.55;30.72;99218.53;5054588;28;20168;-78
2021/08/03 04:54:49;;;;;;;11.43;5.88;;;;;;;30.76;31.05;99240.53;5054521;28;20020;-78
2021/08/03 04:57:15;;;;;;;12.65;5.88;;;;;;;30.71;31.14;99253.53;5052820;28;20393;-79
2021/08/03 04:59:40;;;;;;;15.43;6.22;;;;;;;30.49;30.96;99199.91;5053346;28;20029;-80
2021/08/03 05:02:06;;;;;;;14.02;5.90;;;;;;;30.54;31.29;99206.03;5055017;28;20012;-80
2021/08/03 05:04:34;;;;;;;12.27;6.22;;;;;;;30.29;31.46;99182.22;5054975;28;20535;-80
2021/08/03 05:07:04;;;;;;;12.25;6.07;;;;;;;30.69;31.25;99250.31;5051722;28;20382;-80
2021/08/03 05:09:29;;;;;;;14.80;6.10;;;;;;;30.35;31.81;99189.94;5054460;28;20028;-81
2021/08/03 05:11:55;;;;;;;14.75;5.82;;;;;;;30.56;31.60;99239.19;5048885;28;20358;-80
2021/08/03 05:14:20;;;;;;;11.13;5.63;;;;;;;30.63;31.51;99236.84;5052045;28;20494;-80
2021/08/03 05:16:45;;;;;;;11.75;6.22;;;;;;;30.33;32.14;99204.97;5043540;28;20371;-78
2021/08/03 05:19:11;;;;;;;9.65;5.15;;;;;;;30.47;32.33;99226.66;5031150;28;20517;-77
2021/08/03 05:21:36;;;;;;;15.52;5.78;;;;;;;30.56;32.10;99243.84;5045812;28;20025;-79
2021/08/03 05:24:02;;;;;;;14.32;5.45;;;;;;;30.76;31.86;99270.53;5051135;28;20408;-78
2021/08/03 05:26:27;;;;;;;12.25;5.60;;;;;;;30.71;32.33;99270.69;5051257;28;20472;-81
2021/08/03 05:28:53;;;;;;;11.32;5.60;;;;;;;30.69;32.44;99275.66;5050048;28;20017;-79
2021/08/03 05:31:18;;;;;;;15.38;5.53;;;;;;;30.20;32.43;99189.56;5051011;28;20505;-79
2021/08/03 05:33:44;;;;;;;14.43;6.20;;;;;;;30.71;32.62;99273.41;5049390;28;20035;-78
2021/08/03 05:36:09;;;;;;;12.57;5.57;;;;;;;30.59;32.41;99248.69;5050897;28;20071;-78
2021/08/03 05:38:34;;;;;;;15.48;6.05;;;;;;;30.90;32.59;99281.28;5051079;28;20017;-77
2021/08/03 05:41:00;;;;;;;16.30;6.40;;;;;;;30.97;31.95;99282.44;5050969;28;20052;-79
2021/08/03 05:43:25;;;;;;;15.13;6.00;;;;;;;30.80;32.03;99248.88;5051139;28;20032;-80
2021/08/03 05:45:50;;;;;;;13.18;5.38;;;;;;;30.73;32.17;99238.47;5050924;28;20025;-77
2021/08/03 05:48:16;;;;;;;10.38;5.80;;;;;;;30.75;31.87;99243.59;5037007;28;20086;-80
2021/08/03 05:50:41;;;;;;;15.55;6.00;;;;;;;30.94;32.11;99277.63;5037949;28;20058;-80
2021/08/03 05:53:08;;;;;;;11.60;5.70;;;;;;;31.10;32.00;99285.31;5039795;28;20407;-79
2021/08/03 05:55:34;;;;;;;13.07;6.43;;;;;;;30.89;32.31;99238.78;5052957;28;20021;-78
2021/08/03 05:57:59;;;;;;;13.35;5.55;;;;;;;30.94;32.05;99255.78;5050600;28;20021;-81
2021/08/03 06:00:25;;;;;;;12.65;6.07;;;;;;;30.81;32.02;99234.13;5040191;28;20029;-79
2021/08/03 06:02:50;;;;;;;13.40;6.07;;;;;;;30.91;31.92;99236.56;5030965;28;20033;-80
2021/08/03 06:05:16;;;;;;;11.93;5.68;;;;;;;30.94;31.61;99253.06;5035674;28;20504;-79
2021/08/03 06:07:44;;;;;;;13.75;5.70;;;;;;;30.60;32.33;99182.16;5050817;28;20029;-80
2021/08/03 06:10:14;;;;;;;14.90;7.05;;;;;;;31.41;32.18;99298.88;5045828;28;20025;-79
2021/08/03 06:12:43;;;;;;;;;;;;;;;31.28;32.38;99282.34;5031075;28;20457;-78
2021/08/03 06:15:09;;;;;;;11.73;6.03;;;;;;;31.33;31.74;99256.03;5040091;28;20356;-79
2021/08/03 06:17:37;;;;;;;12.65;7.10;;;;;;;31.57;31.92;99286.31;5050954;28;20509;-78
2021/08/03 06:20:05;;;;;;;14.82;6.13;;;;;;;31.40;31.84;99246.22;5041692;28;20568;-78
2021/08/03 06:22:34;;;;;;;19.45;6.65;;;;;;;31.26;31.94;99235.47;5032389;28;20454;-79
2021/08/03 06:25:01;;;;;;;16.83;5.63;;;;;;;31.75;31.43;99308.97;5035735;28;20549;-80
2021/08/03 06:27:29;;;;;;;18.58;6.68;;;;;;;31.70;31.68;99279.13;5042330;28;20052;-79
2021/08/03 06:29:56;;;;;;;15.02;6.47;;;;;;;31.84;31.34;99290.63;5039889;28;20021;-77
2021/08/03 06:32:22;;;;;;;15.93;6.30;;;;;;;31.87;31.55;99303.66;5034024;28;20052;-79
2021/08/03 06:34:48;;;;;;;8.25;5.13;;;;;;;31.94;31.23;99303.94;5048499;28;20087;-79
2021/08/03 06:37:14;;;;;;;22.38;8.02;;;;;;;31.98;31.34;99301.41;5043307;28;20037;-79
2021/08/03 06:39:41;;;;;;;17.38;6.30;;;;;;;32.05;31.54;99305.22;5047741;28;20055;-79
2021/08/03 06:42:33;;;;;;;14.05;6.50;;;;;;;32.07;31.33;99304.91;5042645;28;20033;-79
2021/08/03 06:45:11;;;;;;;12.45;5.82;;;;;;;31.95;31.42;99271.97;5033297;28;20079;-79
2021/08/03 06:47:59;;;;;;;12.40;5.40;;;;;;;31.69;31.52;99234.59;5033727;28;20028;-79
2021/08/03 06:50:27;;;;;;;19.38;6.70;;;;;;;32.03;31.29;99298.50;5036128;28;20020;-77
2021/08/03 06:52:53;;;;;;;16.25;6.97;;;;;;;31.79;31.60;99236.22;5046790;28;20545;-78
2021/08/03 06:55:32;;;;;;;16.58;6.85;;;;;;;32.30;31.76;99311.75;5033288;28;20097;-78
2021/08/03 06:58:03;;;;;;;15.18;6.75;;;;;;;32.36;31.87;99313.19;5031301;28;20061;-80
2021/08/03 07:00:37;;;;;;;12.30;6.00;;;;;;;32.46;31.63;99315.53;5033081;28;20516;-79
2021/08/03 07:03:04;;;;;;;11.90;6.40;;;;;;;32.23;31.82;99275.91;5053435;28;20021;-78
2021/08/03 07:05:32;;;;;;;9.90;6.15;;;;;;;32.69;31.56;99320.75;5052943;28;20095;-78
2021/08/03 07:07:58;;;;;;;16.27;6.10;;;;;;;32.70;31.66;99309.50;5045511;28;20039;-76
2021/08/03 07:10:26;;;;;;;14.07;5.65;;;;;;;32.80;31.38;99313.81;5031730;28;20025;-80
2021/08/03 07:12:55;;;;;;;14.60;6.35;;;;;;;32.85;31.12;99317.16;5032851;28;20021;-79
2021/08/03 07:15:24;;;;;;;11.02;6.45;;;;;;;32.78;30.88;99310.63;5033017;28;20021;-80
2021/08/03 07:17:50;;;;;;;13.30;6.35;;;;;;;32.55;31.28;99263.56;5042469;28;20025;-79
2021/08/03 07:20:16;;;;;;;14.40;6.80;;;;;;;32.96;31.19;99314.84;5053030;28;20433;-79
2021/08/03 07:22:42;;;;;;;15.95;6.25;;;;;;;32.74;31.27;99274.09;5052937;28;20456;-78
2021/08/03 07:25:10;;;;;;;17.80;6.30;;;;;;;33.01;30.54;99317.38;5051064;28;20033;-74
2021/08/03 07:27:36;;;;;;;13.38;5.63;;;;;;;33.03;30.72;99306.91;5040489;28;20521;-75
2021/08/03 07:30:04;;;;;;;14.95;6.68;;;;;;;33.12;30.42;99310.38;5036439;28;20502;-72
2021/08/03 07:32:29;;;;;;;14.18;6.30;;;;;;;32.71;30.17;99244.69;5035903;28;20037;-73
2021/08/03 07:34:55;;;;;;;15.18;6.45;;;;;;;33.20;29.69;99313.38;5043489;28;20187;-76
2021/08/03 07:37:20;;;;;;;14.73;7.22;;;;;;;33.17;29.81;99307.44;5034969;28;20035;-75
2021/08/03 07:39:46;;;;;;;16.17;6.47;;;;;;;33.13;29.31;99279.16;5044710;28;20490;-75
2021/08/03 07:42:11;;;;;;;13.00;6.20;;;;;;;33.16;29.19;99269.47;5039389;28;20525;-76
2021/08/03 07:44:37;;;;;;;13.70;6.38;;;;;;;33.36;28.82;99308.94;5037609;28;20135;-76
2021/08/03 07:47:04;;;;;;;11.15;5.75;;;;;;;33.27;28.92;99291.75;5039464;28;20030;-76
2021/08/03 07:49:29;;;;;;;12.13;6.57;;;;;;;33.50;28.73;99319.63;5032167;28;20101;-75
2021/08/03 07:51:54;;;;;;;13.00;7.05;;;;;;;33.42;28.84;99291.97;5030812;28;20117;-75
2021/08/03 07:54:20;;;;;;;13.00;6.55;;;;;;;33.72;28.47;99327.47;5031854;28;20021;-75
2021/08/03 07:56:46;;;;;;;11.85;5.65;;;;;;;33.65;28.29;99302.59;5046174;28;20016;-75
2021/08/03 07:59:11;;;;;;;12.98;7.40;;;;;;;33.73;28.24;99329.09;5049296;28;20025;-74
2021/08/03 08:01:38;;;;;;;17.33;6.65;;;;;;;33.63;28.06;99311.13;5035957;28;20524;-74
2021/08/03 08:04:03;;;;;;;12.40;6.63;;;;;;;33.83;28.34;99315.00;5040998;28;20029;-74
2021/08/03 08:06:29;;;;;;;11.98;6.65;;;;;;;33.97;27.84;99323.72;5032264;28;20508;-74
2021/08/03 08:08:55;;;;;;;10.10;6.40;;;;;;;33.99;27.65;99324.16;5031117;28;20033;-75
2021/08/03 08:11:20;;;;;;;13.25;6.72;;;;;;;33.95;27.85;99320.50;5038038;28;20544;-74
2021/08/03 08:13:46;;;;;;;10.75;5.95;;;;;;;34.07;27.75;99327.94;5046166;28;20040;-75
2021/08/03 08:16:11;;;;;;;13.68;6.18;;;;;;;33.83;27.87;99287.59;5060079;28;20028;-76
2021/08/03 08:18:37;;;;;;;15.43;6.43;;;;;;;34.14;27.30;99314.50;5058250;28;20028;-75
2021/08/03 08:21:03;;;;;;;13.10;6.50;;;;;;;34.09;26.96;99282.63;5045525;28;20060;-75
2021/08/03 08:23:29;;;;;;;16.10;6.57;;;;;;;34.40;27.34;99320.53;5039087;28;20029;-74
2021/08/03 08:25:55;;;;;;;19.73;7.13;;;;;;;34.49;26.86;99319.63;5048584;28;20469;-75
2021/08/03 08:28:20;;;;;;;17.25;7.97;;;;;;;34.60;26.47;99318.00;5036503;28;20045;-74
2021/08/03 08:30:46;;;;;;;17.20;6.93;;;;;;;34.24;26.74;99263.94;5031716;28;20435;-75
2021/08/03 08:33:12;;;;;;;11.30;6.05;;;;;;;34.49;26.74;99287.50;5031387;28;20091;-75
2021/08/03 08:35:38;;;;;;;17.83;6.50;;;;;;;34.69;26.23;99283.84;5031321;28;20425;-74
2021/08/03 08:38:04;;;;;;;11.05;6.10;;;;;;;34.32;26.46;99222.75;5031308;28;20060;-75
2021/08/03 08:40:29;;;;;;;13.73;7.30;;;;;;;35.08;26.01;99325.44;5042675;28;20059;-74
2021/08/03 08:42:55;;;;;;;10.23;6.05;;;;;;;35.12;25.57;99325.53;5034411;28;20060;-75
2021/08/03 08:45:20;;;;;;;14.50;6.47;;;;;;;35.02;25.69;99304.88;5030834;28;20029;-75
2021/08/03 08:47:48;;;;;;;13.13;7.20;;;;;;;35.26;25.91;99325.97;5030927;28;20037;-73
2021/08/03 08:50:16;;;;;;;11.35;6.72;;;;;;;35.16;25.35;99330.00;5046650;28;20036;-75
2021/08/03 08:52:45;;;;;;;16.83;6.53;;;;;;;35.55;25.14;99316.63;5058403;28;20021;-73
2021/08/03 08:55:11;;;;;;;10.55;5.97;;;;;;;35.62;25.44;99317.63;5051121;28;20029;-74
2021/08/03 08:57:38;;;;;;;10.18;6.15;;;;;;;35.67;25.21;99316.56;5055758;28;20520;-74
2021/08/03 09:00:06;;;;;;;12.93;6.13;;;;;;;35.28;25.05;99255.84;5051946;28;20559;-72
2021/08/03 09:02:46;;;;;;;10.25;5.78;;;;;;;35.67;24.40;99284.44;5039173;28;20025;-75
2021/08/03 09:05:15;;;;;;;10.32;5.25;;;;;;;35.61;24.29;99265.78;5031503;28;20142;-75
2021/08/03 09:07:50;;;;;;;13.27;5.53;;;;;;;35.88;23.96;99280.69;5033743;28;20017;-73
2021/08/03 09:10:31;;;;;;;13.25;5.75;;;;;;;36.23;23.43;99305.53;5029573;28;20351;-73
2021/08/03 09:13:03;;;;;;;9.95;5.13;;;;;;;36.40;22.85;99316.19;5030928;28;20640;-73
2021/08/03 09:15:30;;;;;;;13.93;6.32;;;;;;;36.50;23.32;99309.41;5030667;28;20026;-76
2021/08/03 09:18:14;;;;;;;10.55;6.15;;;;;;;36.68;22.72;99312.56;5030981;28;20045;-73
2021/08/03 09:20:41;;;;;;;10.85;5.50;;;;;;;36.59;22.30;99293.50;5033606;28;20029;-75
2021/08/03 09:23:06;;;;;;;13.43;5.82;;;;;;;36.68;21.85;99316.09;5046944;28;20021;-78
2021/08/03 09:25:32;;;;;;;11.10;6.35;;;;;;;36.45;21.94;99251.91;5046027;28;20028;-78
2021/08/03 09:28:03;;;;;;;12.45;5.53;;;;;;;36.96;21.79;99304.97;5041021;28;20035;-78
2021/08/03 09:30:31;;;;;;;10.55;5.65;;;;;;;36.65;21.59;99250.81;5050777;28;20547;-79
2021/08/03 09:32:58;;;;;;;10.63;5.10;;;;;;;37.15;21.48;99304.19;5050236;28;20118;-79
2021/08/03 09:35:24;;;;;;;12.93;5.78;;;;;;;37.19;21.18;99296.84;5065276;28;20031;-78
2021/08/03 09:37:51;;;;;;;11.82;5.65;;;;;;;36.91;20.76;99267.53;5070759;28;20111;-77
2021/08/03 09:40:16;;;;;;;8.13;4.65;;;;;;;37.38;20.44;99296.06;5052427;28;20495;-79
2021/08/03 09:42:42;;;;;;;12.77;5.95;;;;;;;37.31;20.34;99257.38;5036897;28;20025;-78
2021/08/03 09:45:08;;;;;;;10.65;5.97;;;;;;;37.61;20.34;99291.41;5055583;28;20532;-78
2021/08/03 09:47:36;;;;;;;16.33;5.65;;;;;;;37.74;20.34;99295.63;5040887;28;20062;-79
2021/08/03 09:50:11;;;;;;;9.50;5.35;;;;;;;37.48;20.50;99234.91;5029871;28;20038;-79
2021/08/03 09:52:40;;;;;;;9.45;5.00;;;;;;;37.95;19.95;99294.44;5038819;28;20529;-78
2021/08/03 09:55:17;;;;;;;10.40;5.10;;;;;;;38.21;20.21;99302.81;5044021;28;20053;-78
2021/08/03 09:57:45;;;;;;;6.55;5.00;;;;;;;38.08;20.22;99243.47;5038655;28;20118;-77
2021/08/03 10:00:34;;;;;;;10.38;4.95;;;;;;;38.60;18.91;99291.59;5031003;28;20025;-80
2021/08/03 10:03:00;;;;;;;10.45;4.97;;;;;;;38.69;19.58;99287.47;5038158;28;20460;-79
2021/08/03 10:05:26;;;;;;;7.75;4.90;;;;;;;38.48;18.88;99249.25;5054038;28;20413;-79
2021/08/03 10:07:53;;;;;;;9.38;5.10;;;;;;;38.82;18.07;99290.81;5049731;28;20029;-79
2021/08/03 10:10:18;;;;;;;6.63;4.97;;;;;;;39.02;17.98;99296.97;5059264;28;20117;-78
2021/08/03 10:12:44;;;;;;;11.98;5.03;;;;;;;38.90;17.53;99242.78;5072739;28;20086;-78
2021/08/03 10:15:10;;;;;;;8.73;4.82;;;;;;;39.37;17.70;99286.41;5063040;28;20033;-78
2021/08/03 10:17:37;;;;;;;7.65;4.63;;;;;;;39.39;17.70;99250.13;5052736;28;20378;-78
2021/08/03 10:20:03;;;;;;;9.70;5.18;;;;;;;39.56;17.03;99279.97;5062186;28;20029;-78
2021/08/03 10:22:33;;;;;;;11.30;4.55;;;;;;;39.30;17.44;99224.75;5073829;28;20021;-77
2021/08/03 10:24:58;;;;;;;9.82;4.90;;;;;;;39.86;17.60;99288.16;5036232;28;20025;-78
2021/08/03 10:27:38;;;;;;;9.98;5.20;;;;;;;39.92;16.81;99263.72;5055689;28;20063;-79
2021/08/03 10:30:04;;;;;;;11.07;5.05;;;;;;;39.71;16.97;99200.75;5073947;28;20107;-78
2021/08/03 10:32:39;;;;;;;8.27;4.40;;;;;;;40.21;16.04;99267.59;5036221;28;20048;-78
2021/08/03 10:35:06;;;;;;;12.40;3.97;;;;;;;40.02;16.39;99246.47;5033584;28;20516;-78
2021/08/03 10:37:59;;;;;;;7.22;4.07;;;;;;;40.33;15.39;99265.31;5046826;28;20028;-77
2021/08/03 10:40:43;;;;;;;7.82;4.13;;;;;;;40.56;15.52;99256.78;5033753;28;20056;-78
2021/08/03 10:43:18;;;;;;;7.07;4.45;;;;;;;40.80;15.95;99254.56;5033605;28;20030;-78
2021/08/03 10:45:45;;;;;;;7.35;5.38;;;;;;;40.82;15.95;99247.47;5032504;28;20033;-79
2021/08/03 10:48:39;;;;;;;10.15;6.07;;;;;;;40.85;15.59;99243.94;5033613;28;20033;-79
2021/08/03 10:51:14;;;;;;;8.88;5.40;;;;;;;40.98;15.51;99251.91;5035413;28;20030;-78
2021/08/03 10:53:51;;;;;;;11.73;5.32;;;;;;;41.09;14.77;99241.69;5042058;28;20435;-78
2021/08/03 10:56:18;;;;;;;6.90;4.35;;;;;;;40.76;15.58;99185.31;5054189;28;20101;-78
2021/08/03 10:58:44;;;;;;;7.88;4.13;;;;;;;41.05;15.56;99204.88;5048634;28;20095;-79
2021/08/03 11:01:09;;;;;;;10.48;4.47;;;;;;;41.10;15.45;99185.09;5032056;28;20029;-79
2021/08/03 11:03:34;;;;;;;7.13;4.10;;;;;;;41.35;15.43;99227.53;5033175;28;20021;-77
2021/08/03 11:06:06;;;;;;;9.60;4.15;;;;;;;41.59;14.91;99237.88;5033158;28;20482;-77
2021/08/03 11:08:46;;;;;;;8.48;4.30;;;;;;;41.50;15.37;99225.59;5032672;28;20056;-79
2021/08/03 11:11:21;;;;;;;9.85;4.40;;;;;;;41.74;15.19;99235.97;5047919;28;20068;-78
2021/08/03 11:13:55;;;;;;;7.28;4.40;;;;;;;41.80;14.91;99233.59;5046723;28;20083;-79
2021/08/03 11:16:23;;;;;;;12.77;5.90;;;;;;;42.09;14.49;99234.44;5037081;28;20120;-79
2021/08/03 11:18:56;;;;;;;8.73;4.50;;;;;;;41.98;13.03;99245.50;5058035;28;20107;-79
2021/08/03 11:21:29;;;;;;;7.13;5.15;;;;;;;42.06;13.72;99233.25;5036377;28;20053;-78
2021/08/03 11:24:16;;;;;;;7.25;3.80;;;;;;;42.25;12.65;99225.69;5042056;28;20052;-78
2021/08/03 11:26:52;;;;;;;7.13;4.00;;;;;;;42.36;12.85;99218.13;5032689;28;20040;-77
2021/08/03 11:29:20;;;;;;;7.57;4.05;;;;;;;42.45;12.26;99213.03;5057519;28;20025;-77
2021/08/03 11:31:48;;;;;;;6.60;4.05;;;;;;;42.56;11.86;99208.22;5056433;28;20040;-78
2021/08/03 11:34:20;;;;;;;8.05;5.95;;;;;;;42.55;11.83;99183.66;5032683;28;20030;-80